Terminal Aerodrome Forecast
Issued by NWS Los Angeles, CA

Home | Current Version | Previous Version | Text Only | Print | Product List | Glossary On
Versions: 1 2 3 4 5 6 7 8 9 10 11 12 13 14 15 16 17 18 19 20 21 22 23 24
183
FTUS46 KLOX 262322
TAFSMX
TAF
KSMX 262322Z 2700/2724 30020KT P6SM SKC
     FM270300 30012KT P6SM SKC
     FM270600 30006KT P6SM SKC
     FM271100 VRB03KT P6SM OVC008
     FM271500 VRB03KT P6SM OVC012
     FM271700 30008KT P6SM SKC
     FM272000 31012G22KT P6SM SKC=

USA.gov is the U.S. government's official web portal to all federal, state and local government web resources and services.